Time;durP1;ratioP1;P1;durP2;ratioP2;P2;SDS_P1;SDS_P2;PMS_P1;PMS_P2;Temp;Humidity;BMP_temperature;BMP_pressure;BME280_temperature;BME280_humidity;BME280_pressure;Samples;Min_cycle;Max_cycle;Signal;HPM_P1;HPM_P2
2023/06/06 00:02:21;;;;;;;15.25;5.70;;;10.20;99.90;;;;;;5017428;28;20080;-89
2023/06/06 00:04:49;;;;;;;12.35;5.55;;;10.20;99.90;;;;;;5035223;28;20429;-89
2023/06/06 00:07:16;;;;;;;12.75;5.85;;;10.20;99.90;;;;;;5034000;28;20530;-89
2023/06/06 00:09:42;;;;;;;14.77;5.97;;;10.20;99.90;;;;;;5030256;23;20049;-89
2023/06/06 00:12:12;;;;;;;12.15;5.78;;;10.10;99.90;;;;;;5053137;28;20055;-88
2023/06/06 00:14:40;;;;;;;14.07;6.45;;;10.10;99.90;;;;;;5055359;28;20127;-89
2023/06/06 00:17:08;;;;;;;14.25;6.82;;;10.10;99.90;;;;;;5053673;28;20090;-89
2023/06/06 00:19:35;;;;;;;14.82;6.00;;;10.10;99.90;;;;;;5054261;28;20044;-88
2023/06/06 00:22:02;;;;;;;16.83;6.35;;;10.20;99.90;;;;;;5053946;28;20098;-88
2023/06/06 00:24:28;;;;;;;14.07;5.82;;;10.10;99.90;;;;;;5053172;28;20477;-89
2023/06/06 00:26:54;;;;;;;15.45;5.97;;;10.90;99.90;;;;;;5053908;28;20055;-89
2023/06/06 00:29:19;;;;;;;15.48;6.07;;;10.00;99.90;;;;;;5054544;28;20052;-89
2023/06/06 00:31:45;;;;;;;17.17;6.53;;;10.00;99.90;;;;;;5053488;28;20049;-89
2023/06/06 00:34:11;;;;;;;15.23;6.80;;;10.00;99.90;;;;;;5053141;28;20037;-89
2023/06/06 00:36:36;;;;;;;16.90;6.43;;;10.00;99.90;;;;;;5054715;28;20090;-89
2023/06/06 00:39:02;;;;;;;14.65;6.53;;;10.00;99.90;;;;;;5052957;28;20048;-89
2023/06/06 00:41:27;;;;;;;16.98;7.28;;;9.90;99.90;;;;;;5052620;28;20499;-89
2023/06/06 00:43:54;;;;;;;17.05;7.07;;;9.90;99.90;;;;;;5056549;28;20086;-89
2023/06/06 00:46:19;;;;;;;14.15;6.57;;;9.90;99.90;;;;;;5058148;28;20048;-87
2023/06/06 00:48:46;;;;;;;14.05;6.03;;;10.60;99.90;;;;;;5054803;28;20056;-88
2023/06/06 00:51:12;;;;;;;14.65;6.90;;;9.90;99.90;;;;;;5053375;28;20481;-89
2023/06/06 00:53:37;;;;;;;15.05;6.72;;;9.90;99.90;;;;;;5061725;22;20056;-88
2023/06/06 00:56:05;;;;;;;13.82;7.13;;;9.90;99.90;;;;;;5053136;28;20407;-89
2023/06/06 00:58:31;;;;;;;13.90;6.60;;;9.90;99.90;;;;;;5054385;28;20080;-89
2023/06/06 01:00:57;;;;;;;17.10;6.90;;;9.90;99.90;;;;;;5054472;28;20073;-88
2023/06/06 01:03:24;;;;;;;16.25;6.97;;;9.90;99.90;;;;;;5051820;28;20040;-88
2023/06/06 01:05:55;;;;;;;15.50;7.28;;;9.90;99.90;;;;;;5053243;28;20109;-88
2023/06/06 01:08:22;;;;;;;15.85;7.07;;;9.90;99.90;;;;;;5053062;28;20045;-88
2023/06/06 01:10:50;;;;;;;16.20;7.18;;;9.90;99.90;;;;;;5052395;28;20102;-88
2023/06/06 01:13:46;;;;;;;14.55;6.72;;;10.30;99.90;;;;;;5053905;28;20056;-89
2023/06/06 01:16:17;;;;;;;15.88;6.97;;;9.80;99.90;;;;;;5048547;28;20057;-89
2023/06/06 01:18:45;;;;;;;16.38;7.40;;;9.80;99.90;;;;;;5056516;28;20077;-89
2023/06/06 01:21:12;;;;;;;16.20;6.60;;;10.40;99.90;;;;;;5070849;28;20059;-89
2023/06/06 01:23:38;;;;;;;16.70;6.95;;;9.80;99.90;;;;;;5060481;28;20036;-89
2023/06/06 01:26:07;;;;;;;16.48;7.28;;;10.40;99.90;;;;;;5057395;28;20477;-89
2023/06/06 01:28:33;;;;;;;16.80;7.10;;;9.80;99.90;;;;;;5054244;28;20041;-89
2023/06/06 01:30:59;;;;;;;14.65;6.85;;;9.90;99.90;;;;;;5052586;28;20044;-89
2023/06/06 01:33:30;;;;;;;17.50;7.30;;;9.80;99.90;;;;;;5052836;28;20045;-89
2023/06/06 01:36:23;;;;;;;16.13;6.55;;;9.80;99.90;;;;;;5054196;28;20128;-88
2023/06/06 01:38:59;;;;;;;15.27;6.90;;;9.80;99.90;;;;;;5052798;28;20064;-89
2023/06/06 01:41:28;;;;;;;16.65;6.68;;;9.70;99.90;;;;;;5051802;28;20079;-88
2023/06/06 01:43:55;;;;;;;16.08;7.20;;;9.80;99.90;;;;;;5051418;28;20045;-89
2023/06/06 01:46:24;;;;;;;15.85;6.85;;;10.20;99.90;;;;;;5053103;28;20053;-89
2023/06/06 01:48:50;;;;;;;15.75;6.63;;;9.70;99.90;;;;;;5051950;28;20051;-88
2023/06/06 01:51:16;;;;;;;15.73;6.88;;;9.70;99.90;;;;;;5052685;28;20052;-89
2023/06/06 01:53:42;;;;;;;16.30;6.63;;;9.70;99.90;;;;;;5053077;28;20115;-89
2023/06/06 01:56:12;;;;;;;16.75;6.65;;;9.70;99.90;;;;;;5052969;28;20496;-89
2023/06/06 01:58:38;;;;;;;15.50;6.75;;;9.70;99.90;;;;;;5052189;28;20515;-88
2023/06/06 02:01:06;;;;;;;16.17;6.78;;;9.70;99.90;;;;;;5052104;28;20056;-89
2023/06/06 02:03:32;;;;;;;16.60;7.38;;;9.70;99.90;;;;;;5051950;28;20087;-88
2023/06/06 02:05:58;;;;;;;15.27;6.68;;;9.60;99.90;;;;;;5052440;28;20076;-89
2023/06/06 02:08:23;;;;;;;15.25;6.70;;;9.60;99.90;;;;;;5053443;28;20072;-88
2023/06/06 02:10:50;;;;;;;18.13;6.65;;;10.00;99.90;;;;;;5052968;28;20037;-89
2023/06/06 02:13:16;;;;;;;16.10;6.55;;;9.70;99.90;;;;;;5052517;28;20119;-89
2023/06/06 02:15:41;;;;;;;16.92;7.50;;;9.60;99.90;;;;;;5051707;28;20151;-89
2023/06/06 02:18:07;;;;;;;16.38;7.07;;;9.60;99.90;;;;;;5061609;28;20037;-89
2023/06/06 02:20:33;;;;;;;16.00;6.65;;;9.60;99.90;;;;;;5053692;28;20187;-89
2023/06/06 02:22:58;;;;;;;16.83;6.55;;;9.50;99.90;;;;;;5052399;28;20037;-89
2023/06/06 02:25:24;;;;;;;14.45;6.45;;;9.60;99.90;;;;;;5052184;28;20519;-89
2023/06/06 02:27:50;;;;;;;15.02;6.35;;;9.50;99.90;;;;;;5051386;28;20048;-89
2023/06/06 02:30:16;;;;;;;16.90;6.90;;;9.50;99.90;;;;;;5051748;28;20051;-89
2023/06/06 02:32:41;;;;;;;15.27;6.68;;;9.50;99.90;;;;;;5053765;28;20123;-89
2023/06/06 02:35:08;;;;;;;16.40;7.20;;;9.50;99.90;;;;;;5050903;28;20136;-89
2023/06/06 02:37:33;;;;;;;15.32;7.10;;;9.50;99.90;;;;;;5052289;28;20124;-89
2023/06/06 02:40:08;;;;;;;19.08;7.82;;;9.50;99.90;;;;;;5052931;28;20509;-89
2023/06/06 02:42:35;;;;;;;15.32;7.05;;;9.50;99.90;;;;;;5053513;28;20124;-88
2023/06/06 02:45:01;;;;;;;19.95;7.55;;;9.40;99.90;;;;;;5054523;28;20056;-88
2023/06/06 02:47:26;;;;;;;16.48;7.10;;;9.50;99.90;;;;;;5051637;28;20451;-89
2023/06/06 02:49:52;;;;;;;16.30;6.80;;;9.40;99.90;;;;;;5053039;28;20120;-89
2023/06/06 02:52:21;;;;;;;16.45;7.38;;;10.30;99.90;;;;;;5052782;28;20041;-89
2023/06/06 02:54:50;;;;;;;17.88;7.47;;;9.40;99.90;;;;;;5050798;28;20049;-88
2023/06/06 02:57:15;;;;;;;17.45;7.65;;;9.40;99.90;;;;;;5051796;28;20036;-88
2023/06/06 02:59:43;;;;;;;15.90;7.35;;;9.40;99.90;;;;;;5051891;28;20049;-89
2023/06/06 03:02:10;;;;;;;16.33;7.38;;;10.00;99.90;;;;;;5054032;28;20044;-88
2023/06/06 03:04:35;;;;;;;19.15;7.88;;;9.30;99.90;;;;;;5055156;28;20497;-89
2023/06/06 03:07:10;;;;;;;19.73;8.32;;;9.30;99.90;;;;;;5057052;28;20037;-89
2023/06/06 03:09:36;;;;;;;17.13;7.68;;;9.30;99.90;;;;;;5054839;28;20477;-88
2023/06/06 03:12:01;;;;;;;17.02;8.18;;;9.30;99.90;;;;;;5056714;28;20037;-87
2023/06/06 03:14:27;;;;;;;18.23;8.10;;;9.30;99.90;;;;;;5055482;28;20580;-88
2023/06/06 03:16:55;;;;;;;19.00;8.70;;;10.30;99.90;;;;;;5054746;28;20049;-89
2023/06/06 03:19:21;;;;;;;17.85;7.55;;;9.30;99.90;;;;;;5056590;28;20052;-88
2023/06/06 03:21:46;;;;;;;18.75;8.13;;;9.30;99.90;;;;;;5056840;28;20034;-88
2023/06/06 03:24:13;;;;;;;19.13;7.97;;;9.30;99.90;;;;;;5055305;28;20044;-88
2023/06/06 03:26:39;;;;;;;21.20;8.55;;;9.30;99.90;;;;;;5055391;28;20384;-88
2023/06/06 03:29:05;;;;;;;19.17;8.20;;;9.30;99.90;;;;;;5055141;28;20041;-87
2023/06/06 03:31:32;;;;;;;20.33;8.55;;;9.30;99.90;;;;;;5055786;28;20067;-88
2023/06/06 03:33:58;;;;;;;20.55;8.27;;;9.30;99.90;;;;;;5055658;28;20033;-87
2023/06/06 03:36:24;;;;;;;19.20;8.88;;;9.30;99.90;;;;;;5054177;28;20048;-89
2023/06/06 03:38:49;;;;;;;18.98;8.88;;;9.90;99.90;;;;;;5056826;28;20428;-88
2023/06/06 03:41:15;;;;;;;21.65;8.88;;;10.20;99.90;;;;;;5055598;28;20087;-89
2023/06/06 03:43:43;;;;;;;17.77;8.30;;;9.30;99.90;;;;;;5053536;28;20075;-88
2023/06/06 03:46:09;;;;;;;22.05;8.57;;;9.30;99.90;;;;;;5054055;28;20132;-89
2023/06/06 03:48:35;;;;;;;18.55;8.60;;;9.30;99.90;;;;;;5056241;28;20080;-88
2023/06/06 03:51:01;;;;;;;21.58;8.95;;;9.30;99.90;;;;;;5062988;28;20045;-89
2023/06/06 03:53:28;;;;;;;17.40;9.13;;;9.30;99.90;;;;;;5056139;28;20053;-88
2023/06/06 03:55:53;;;;;;;21.42;8.88;;;9.30;99.90;;;;;;5055674;28;20508;-89
2023/06/06 03:58:20;;;;;;;18.70;8.93;;;9.30;99.90;;;;;;5053209;28;20037;-88
2023/06/06 04:00:46;;;;;;;18.63;9.65;;;10.40;99.90;;;;;;5052701;28;20042;-89
2023/06/06 04:03:11;;;;;;;18.42;8.95;;;10.10;99.90;;;;;;5046642;28;20125;-88
2023/06/06 04:05:37;;;;;;;21.70;9.68;;;9.40;99.90;;;;;;5035237;28;20666;-88
2023/06/06 04:08:04;;;;;;;23.45;9.13;;;9.40;99.90;;;;;;5035764;28;20045;-88
2023/06/06 04:10:30;;;;;;;20.20;9.32;;;9.40;99.90;;;;;;5036981;28;20048;-88
2023/06/06 04:12:55;;;;;;;19.27;9.38;;;9.50;99.90;;;;;;5034064;28;20132;-88
2023/06/06 04:15:21;;;;;;;21.75;9.48;;;9.50;99.90;;;;;;5035351;28;20073;-88
2023/06/06 04:17:47;;;;;;;20.95;9.40;;;9.50;99.90;;;;;;5036179;28;20092;-88
2023/06/06 04:20:12;;;;;;;21.85;8.75;;;9.60;99.90;;;;;;5034426;28;20492;-87
2023/06/06 04:22:41;;;;;;;23.08;10.02;;;9.60;99.90;;;;;;5043537;28;20041;-87
2023/06/06 04:25:07;;;;;;;21.23;8.98;;;9.60;99.90;;;;;;5054963;28;20036;-88
2023/06/06 04:27:37;;;;;;;18.00;8.68;;;9.70;99.90;;;;;;5044402;28;20053;-88
2023/06/06 04:30:04;;;;;;;21.52;9.30;;;9.70;99.90;;;;;;5037356;28;20052;-88
2023/06/06 04:32:29;;;;;;;20.02;8.60;;;9.80;99.90;;;;;;5034848;28;20137;-88
2023/06/06 04:34:57;;;;;;;20.75;8.93;;;10.20;99.90;;;;;;5035451;28;20132;-88
2023/06/06 04:37:23;;;;;;;26.73;10.50;;;9.80;99.90;;;;;;5034770;28;20038;-87
2023/06/06 04:39:52;;;;;;;19.02;8.25;;;9.80;99.90;;;;;;5034999;28;20473;-88
2023/06/06 04:42:20;;;;;;;21.75;8.07;;;9.90;99.90;;;;;;5034690;28;20101;-88
2023/06/06 04:44:46;;;;;;;20.02;9.30;;;10.60;99.90;;;;;;5034621;28;20053;-87
2023/06/06 04:47:14;;;;;;;20.85;9.23;;;10.00;99.90;;;;;;5032479;28;20045;-88
2023/06/06 04:49:42;;;;;;;20.88;8.13;;;10.60;99.90;;;;;;5034648;28;20057;-87
2023/06/06 04:52:12;;;;;;;18.35;8.23;;;10.20;99.90;;;;;;5034870;28;20041;-88
2023/06/06 04:54:39;;;;;;;19.63;8.25;;;10.20;99.90;;;;;;5017090;28;20049;-88
2023/06/06 04:57:15;;;;;;;16.95;8.07;;;10.60;99.90;;;;;;5035440;28;20554;-88
2023/06/06 04:59:41;;;;;;;19.42;7.82;;;10.30;99.90;;;;;;5032668;28;20049;-87
2023/06/06 05:02:07;;;;;;;16.33;7.82;;;10.40;99.90;;;;;;5033229;28;20180;-88
2023/06/06 05:04:33;;;;;;;16.17;7.50;;;10.40;99.90;;;;;;5034030;28;20552;-88
2023/06/06 05:06:59;;;;;;;18.73;7.82;;;10.50;99.90;;;;;;5033378;28;20079;-88
2023/06/06 05:09:30;;;;;;;15.85;8.18;;;10.60;99.90;;;;;;5033746;28;20045;-87
2023/06/06 05:11:56;;;;;;;19.63;8.38;;;10.60;99.90;;;;;;5033350;28;20443;-89
2023/06/06 05:14:28;;;;;;;18.77;8.52;;;10.70;99.90;;;;;;5034984;28;20132;-88
2023/06/06 05:16:54;;;;;;;17.30;7.72;;;10.70;99.90;;;;;;5033834;28;20062;-88
2023/06/06 05:19:20;;;;;;;16.15;7.13;;;10.80;99.90;;;;;;5033761;28;20045;-88
2023/06/06 05:21:47;;;;;;;17.27;7.57;;;10.90;99.90;;;;;;5031875;28;20048;-87
2023/06/06 05:24:13;;;;;;;16.50;7.22;;;12.00;99.90;;;;;;5034491;28;20052;-88
2023/06/06 05:26:39;;;;;;;16.45;7.45;;;11.10;99.90;;;;;;5032233;28;20049;-87
2023/06/06 05:29:05;;;;;;;19.35;8.23;;;11.10;99.90;;;;;;5032471;28;20108;-87
2023/06/06 05:31:33;;;;;;;17.02;6.88;;;11.20;99.90;;;;;;5035345;28;20087;-88
2023/06/06 05:33:59;;;;;;;14.93;6.45;;;11.30;99.90;;;;;;5033216;28;20042;-87
2023/06/06 05:36:25;;;;;;;17.10;6.53;;;11.30;99.90;;;;;;5034630;28;20133;-88
2023/06/06 05:38:53;;;;;;;18.67;7.88;;;11.40;99.90;;;;;;5036285;28;20160;-88
2023/06/06 05:41:20;;;;;;;19.00;7.10;;;11.50;99.90;;;;;;5018711;28;20052;-88
2023/06/06 05:43:47;;;;;;;15.50;6.30;;;11.50;99.90;;;;;;5015429;28;20553;-87
2023/06/06 05:46:13;;;;;;;16.15;6.28;;;11.60;99.90;;;;;;5031836;28;20051;-88
2023/06/06 05:48:39;;;;;;;14.02;6.70;;;11.60;99.90;;;;;;5033421;28;20048;-88
2023/06/06 05:51:05;;;;;;;14.93;6.07;;;12.50;99.90;;;;;;5032938;28;20052;-88
2023/06/06 05:53:31;;;;;;;18.00;7.15;;;12.20;99.90;;;;;;5031779;28;20057;-89
2023/06/06 05:55:57;;;;;;;16.13;6.43;;;11.80;99.90;;;;;;5032235;28;20387;-88
2023/06/06 05:58:23;;;;;;;19.48;6.45;;;12.20;99.90;;;;;;5031133;28;20049;-89
2023/06/06 06:00:48;;;;;;;14.68;6.35;;;12.10;99.90;;;;;;5032462;28;20452;-88
2023/06/06 06:03:15;;;;;;;17.10;6.80;;;11.90;99.90;;;;;;5033471;28;20089;-87
2023/06/06 06:05:41;;;;;;;17.13;6.47;;;11.90;99.90;;;;;;5031893;28;20106;-88
2023/06/06 06:08:07;;;;;;;15.02;6.00;;;12.00;99.90;;;;;;5032043;28;20508;-88
2023/06/06 06:10:34;;;;;;;17.95;6.15;;;13.00;99.90;;;;;;5033225;28;20464;-88
2023/06/06 06:13:01;;;;;;;16.02;6.50;;;12.20;99.90;;;;;;5031235;28;20528;-88
2023/06/06 06:15:29;;;;;;;19.65;6.57;;;12.60;99.90;;;;;;5031328;28;20045;-88
2023/06/06 06:17:55;;;;;;;15.82;6.60;;;12.40;99.90;;;;;;5032502;28;20037;-87
2023/06/06 06:20:21;;;;;;;16.55;5.45;;;12.50;99.90;;;;;;5032837;28;20080;-88
2023/06/06 06:22:48;;;;;;;16.00;5.47;;;12.50;99.90;;;;;;5032238;28;20099;-87
2023/06/06 06:25:14;;;;;;;13.82;5.10;;;13.30;99.90;;;;;;5030921;28;20045;-88
2023/06/06 06:27:46;;;;;;;13.70;5.47;;;12.60;99.90;;;;;;5033616;28;20037;-87
2023/06/06 06:30:13;;;;;;;13.30;6.25;;;12.60;99.90;;;;;;5033217;28;20033;-88
2023/06/06 06:32:40;;;;;;;13.05;5.63;;;12.70;99.90;;;;;;5031235;28;20041;-88
2023/06/06 06:35:07;;;;;;;18.70;6.10;;;12.80;99.90;;;;;;5031137;28;20551;-88
2023/06/06 06:37:36;;;;;;;15.38;6.28;;;12.80;99.90;;;;;;5035121;28;20083;-87
2023/06/06 06:40:06;;;;;;;16.70;5.35;;;12.90;99.90;;;;;;5035749;28;20539;-88
2023/06/06 06:42:32;;;;;;;14.65;5.95;;;13.00;99.90;;;;;;5036680;28;20069;-88
2023/06/06 06:44:58;;;;;;;14.10;5.80;;;13.10;99.90;;;;;;5036888;28;20077;-89
2023/06/06 06:47:23;;;;;;;17.42;6.70;;;13.70;99.90;;;;;;5034542;28;20481;-89
2023/06/06 06:49:49;;;;;;;16.63;6.35;;;13.40;99.90;;;;;;5035263;28;20077;-88
2023/06/06 06:52:17;;;;;;;13.70;5.80;;;13.80;99.90;;;;;;5035149;28;20045;-88
2023/06/06 06:54:54;;;;;;;13.65;5.93;;;13.70;99.90;;;;;;5037027;28;20053;-89
2023/06/06 06:57:26;;;;;;;17.45;6.57;;;13.90;99.90;;;;;;5038004;28;20050;-87
2023/06/06 06:59:56;;;;;;;13.50;5.60;;;13.90;99.90;;;;;;5036404;28;20056;-87
2023/06/06 07:02:23;;;;;;;13.45;5.80;;;14.50;99.90;;;;;;5035076;28;20515;-83
2023/06/06 07:04:49;;;;;;;15.95;5.40;;;14.10;99.90;;;;;;5034365;28;20048;-83
2023/06/06 07:07:16;;;;;;;13.80;5.35;;;14.20;99.90;;;;;;5034896;28;20041;-83
2023/06/06 07:09:43;;;;;;;12.48;5.53;;;15.20;99.90;;;;;;5035618;28;20106;-84
2023/06/06 07:12:11;;;;;;;13.63;5.78;;;15.50;99.90;;;;;;5034320;28;20049;-84
2023/06/06 07:14:36;;;;;;;14.68;6.30;;;14.60;99.90;;;;;;5033755;28;20379;-84
2023/06/06 07:17:03;;;;;;;15.45;6.50;;;14.80;99.90;;;;;;5034621;28;20048;-84
2023/06/06 07:19:28;;;;;;;13.57;6.40;;;14.90;99.90;;;;;;5034289;28;20049;-84
2023/06/06 07:21:56;;;;;;;15.00;6.47;;;15.10;99.90;;;;;;5034159;28;20048;-84
2023/06/06 07:24:22;;;;;;;13.68;6.00;;;15.10;99.90;;;;;;5035295;28;20096;-84
2023/06/06 07:26:47;;;;;;;15.25;6.35;;;15.10;99.90;;;;;;5041459;28;20045;-84
2023/06/06 07:29:13;;;;;;;13.10;6.13;;;14.40;99.90;;;;;;5048178;28;20049;-82
2023/06/06 07:31:39;;;;;;;17.67;6.03;;;15.10;99.90;;;;;;5047485;28;20485;-83
2023/06/06 07:34:04;;;;;;;13.93;6.60;;;16.10;99.90;;;;;;5037489;28;20416;-84
2023/06/06 07:36:30;;;;;;;16.48;6.15;;;15.40;99.90;;;;;;5034044;28;20045;-84
2023/06/06 07:38:57;;;;;;;12.95;5.85;;;15.50;99.90;;;;;;5033968;28;20088;-84
2023/06/06 07:41:29;;;;;;;12.65;5.10;;;15.70;99.90;;;;;;5034764;28;20045;-84
2023/06/06 07:43:58;;;;;;;11.43;5.43;;;15.60;99.90;;;;;;5034346;28;20045;-84
2023/06/06 07:46:27;;;;;;;13.40;5.63;;;16.20;99.90;;;;;;5033465;28;20045;-84
2023/06/06 07:48:59;;;;;;;12.82;5.15;;;16.70;99.90;;;;;;5034546;28;20080;-84
2023/06/06 07:51:25;;;;;;;12.90;5.78;;;16.90;99.90;;;;;;5032487;28;20056;-83
2023/06/06 07:53:51;;;;;;;12.77;5.85;;;16.80;99.90;;;;;;5034559;28;20061;-83
2023/06/06 07:56:36;;;;;;;12.13;5.32;;;16.90;99.90;;;;;;5033222;28;20072;-84
2023/06/06 07:59:02;;;;;;;14.60;5.50;;;16.70;99.90;;;;;;5033534;28;20133;-83
2023/06/06 08:01:29;;;;;;;14.23;5.28;;;16.20;99.90;;;;;;5033055;28;20136;-84
2023/06/06 08:03:55;;;;;;;15.02;5.95;;;16.40;99.90;;;;;;5032425;28;20053;-84
2023/06/06 08:06:23;;;;;;;13.88;5.50;;;16.40;99.90;;;;;;5032993;28;20045;-84
2023/06/06 08:08:49;;;;;;;11.75;5.43;;;16.50;99.90;;;;;;5034790;28;20100;-84
2023/06/06 08:11:27;;;;;;;15.15;5.88;;;17.40;99.90;;;;;;5032387;28;20486;-84
2023/06/06 08:13:52;;;;;;;13.23;5.10;;;16.70;99.90;;;;;;5033218;28;20041;-84
2023/06/06 08:16:18;;;;;;;15.30;5.85;;;17.80;99.90;;;;;;5034353;28;20540;-84
2023/06/06 08:18:44;;;;;;;14.10;5.75;;;16.90;99.90;;;;;;5032274;28;20041;-84
2023/06/06 08:21:09;;;;;;;12.25;5.35;;;16.20;99.90;;;;;;5033847;28;20037;-83
2023/06/06 08:23:44;;;;;;;12.55;5.10;;;17.00;99.90;;;;;;5033046;28;20076;-84
2023/06/06 08:26:10;;;;;;;13.07;5.53;;;17.10;99.90;;;;;;5032164;28;20077;-84
2023/06/06 08:28:36;;;;;;;15.20;6.18;;;17.60;99.90;;;;;;5033176;28;20595;-83
2023/06/06 08:31:08;;;;;;;13.07;5.50;;;17.90;99.90;;;;;;5033073;28;20057;-84
2023/06/06 08:33:33;;;;;;;12.90;5.72;;;18.60;99.90;;;;;;5032125;28;20054;-84
2023/06/06 08:36:14;;;;;;;14.68;5.30;;;17.70;99.90;;;;;;5032980;28;20378;-84
2023/06/06 08:38:40;;;;;;;12.48;5.90;;;18.60;99.90;;;;;;5031997;28;20037;-83
2023/06/06 08:41:12;;;;;;;10.75;5.32;;;17.90;99.90;;;;;;5032259;28;20103;-84
2023/06/06 08:43:39;;;;;;;13.18;5.75;;;18.10;99.90;;;;;;5032791;28;20045;-84
2023/06/06 08:46:05;;;;;;;13.98;5.75;;;18.10;99.90;;;;;;5032894;28;20042;-84
2023/06/06 08:48:48;;;;;;;13.40;5.70;;;18.10;99.90;;;;;;5033575;28;20497;-83
2023/06/06 08:51:24;;;;;;;12.07;5.80;;;18.30;99.90;;;;;;5033525;28;20086;-84
2023/06/06 08:54:00;;;;;;;11.02;5.28;;;18.40;99.90;;;;;;5032636;28;20057;-84
2023/06/06 08:56:32;;;;;;;11.02;5.43;;;18.60;99.90;;;;;;5033670;28;20052;-84
2023/06/06 08:59:06;;;;;;;13.48;6.07;;;18.50;99.90;;;;;;5031894;28;20076;-84
2023/06/06 09:01:34;;;;;;;12.85;5.72;;;18.60;99.90;;;;;;5031487;28;20049;-84
2023/06/06 09:04:00;;;;;;;12.27;6.20;;;18.60;99.90;;;;;;5032088;28;20042;-84
2023/06/06 09:06:26;;;;;;;13.05;5.57;;;19.00;99.90;;;;;;5033046;28;20049;-84
2023/06/06 09:08:54;;;;;;;11.95;5.68;;;18.90;99.90;;;;;;5032919;28;20073;-84
2023/06/06 09:11:21;;;;;;;13.52;5.63;;;19.20;99.90;;;;;;5032099;28;20046;-84
2023/06/06 09:13:49;;;;;;;13.57;5.70;;;19.30;99.90;;;;;;5031503;28;20045;-84
2023/06/06 09:16:17;;;;;;;13.38;5.55;;;19.40;99.90;;;;;;5032703;28;20041;-84
2023/06/06 09:18:42;;;;;;;13.52;5.68;;;19.20;99.90;;;;;;5033078;28;20550;-84
2023/06/06 09:21:20;;;;;;;12.45;5.53;;;19.60;99.90;;;;;;5032155;28;20120;-85
2023/06/06 09:23:46;;;;;;;14.05;5.45;;;19.50;99.90;;;;;;5032577;28;20129;-84
2023/06/06 09:26:33;;;;;;;11.82;5.85;;;19.70;99.90;;;;;;5032934;28;20053;-84
2023/06/06 09:29:13;;;;;;;13.10;5.72;;;19.60;99.90;;;;;;5032540;28;20045;-84
2023/06/06 09:31:42;;;;;;;12.63;5.70;;;19.60;99.90;;;;;;5032103;28;20060;-84
2023/06/06 09:34:09;;;;;;;12.70;5.50;;;19.70;99.90;;;;;;5032538;28;20045;-84
2023/06/06 09:36:37;;;;;;;12.57;5.45;;;20.50;99.90;;;;;;5031200;28;20053;-84
2023/06/06 09:39:14;;;;;;;11.80;5.78;;;19.90;99.90;;;;;;5031971;28;20045;-84
2023/06/06 09:41:46;;;;;;;12.20;5.25;;;20.10;99.90;;;;;;5031494;28;20049;-84
2023/06/06 09:44:23;;;;;;;11.38;5.60;;;20.20;99.90;;;;;;5032199;28;20045;-84
2023/06/06 09:46:59;;;;;;;10.88;5.43;;;20.90;99.90;;;;;;5032989;28;20100;-84
2023/06/06 09:49:24;;;;;;;12.27;5.40;;;20.30;99.90;;;;;;5030374;28;20041;-84
2023/06/06 09:51:55;;;;;;;12.27;5.45;;;20.40;99.90;;;;;;5031466;28;20052;-84
2023/06/06 09:54:23;;;;;;;12.40;5.13;;;20.40;99.90;;;;;;5032631;28;20559;-84
2023/06/06 09:56:50;;;;;;;14.23;6.22;;;20.50;99.90;;;;;;5030835;28;20045;-84
2023/06/06 09:59:16;;;;;;;13.13;6.05;;;20.50;99.90;;;;;;5031180;28;20129;-84
2023/06/06 10:01:45;;;;;;;12.45;5.95;;;20.50;99.90;;;;;;5031309;28;20042;-84
2023/06/06 10:04:11;;;;;;;13.40;5.93;;;20.40;99.90;;;;;;5031536;28;20501;-84
2023/06/06 10:06:39;;;;;;;12.40;5.78;;;20.50;99.90;;;;;;5032810;28;20034;-84
2023/06/06 10:09:05;;;;;;;13.48;5.65;;;20.60;99.90;;;;;;5031503;28;20132;-83
2023/06/06 10:11:35;;;;;;;12.02;5.43;;;20.90;99.90;;;;;;5034043;28;20057;-84
2023/06/06 10:14:03;;;;;;;14.50;5.70;;;20.90;99.90;;;;;;5036946;28;20401;-84
2023/06/06 10:16:31;;;;;;;15.48;5.85;;;21.10;99.90;;;;;;5035003;28;20044;-84
2023/06/06 10:18:57;;;;;;;13.45;5.70;;;21.10;99.90;;;;;;5034474;28;20041;-84
2023/06/06 10:21:24;;;;;;;13.15;6.38;;;21.40;99.90;;;;;;5035227;28;20043;-84
2023/06/06 10:23:51;;;;;;;11.32;5.60;;;21.40;99.90;;;;;;5035537;28;20091;-84
2023/06/06 10:26:32;;;;;;;15.23;5.45;;;21.60;99.90;;;;;;5044298;28;20041;-84
2023/06/06 10:29:33;;;;;;;12.38;5.97;;;21.80;99.90;;;;;;5047185;28;20107;-84
2023/06/06 10:32:12;;;;;;;10.63;5.65;;;21.90;99.90;;;;;;5005451;28;20064;-84
2023/06/06 10:34:40;;;;;;;11.73;5.72;;;22.10;99.90;;;;;;5035069;28;20049;-84
2023/06/06 10:37:35;;;;;;;13.07;6.00;;;22.20;99.90;;;;;;5034937;28;20562;-84
2023/06/06 10:40:07;;;;;;;13.90;6.05;;;22.10;99.60;;;;;;5031565;28;20068;-84
2023/06/06 10:42:36;;;;;;;11.45;5.97;;;22.20;99.90;;;;;;5035241;28;20050;-83
2023/06/06 10:45:02;;;;;;;13.73;5.40;;;22.20;99.90;;;;;;5036299;28;20053;-84
2023/06/06 10:47:32;;;;;;;13.57;6.05;;;22.20;99.80;;;;;;5033489;28;20127;-84
2023/06/06 10:50:12;;;;;;;12.02;5.85;;;22.30;99.80;;;;;;5036105;28;20053;-84
2023/06/06 10:52:50;;;;;;;11.80;5.88;;;22.50;99.00;;;;;;5035379;28;20045;-85
2023/06/06 10:55:25;;;;;;;11.27;6.13;;;22.70;99.10;;;;;;5034442;28;20049;-84
2023/06/06 10:58:03;;;;;;;14.55;5.88;;;22.70;99.30;;;;;;5034865;28;20103;-84
2023/06/06 11:00:32;;;;;;;16.27;5.85;;;22.90;98.80;;;;;;5035065;28;20049;-84
2023/06/06 11:02:58;;;;;;;17.00;6.20;;;22.90;98.90;;;;;;5036117;28;20099;-84
2023/06/06 11:05:24;;;;;;;13.18;5.57;;;23.00;99.00;;;;;;5035695;28;20045;-84
2023/06/06 11:07:55;;;;;;;15.15;5.80;;;23.10;98.80;;;;;;5033900;28;20440;-84
2023/06/06 11:10:21;;;;;;;12.35;5.60;;;23.30;99.00;;;;;;5034384;28;20053;-84
2023/06/06 11:12:50;;;;;;;15.10;5.97;;;23.40;98.60;;;;;;5034360;28;20576;-84
2023/06/06 11:15:32;;;;;;;11.95;5.55;;;23.50;97.90;;;;;;5033268;28;20044;-84
2023/06/06 11:18:03;;;;;;;11.88;5.40;;;23.50;97.30;;;;;;5034608;28;20088;-84
2023/06/06 11:20:38;;;;;;;12.10;6.00;;;23.40;97.80;;;;;;5034437;28;20133;-84
2023/06/06 11:23:10;;;;;;;11.93;5.05;;;23.40;97.20;;;;;;5034827;28;20060;-83
2023/06/06 11:25:36;;;;;;;12.07;4.90;;;23.50;97.80;;;;;;5035542;28;20046;-84
2023/06/06 11:28:06;;;;;;;10.45;5.00;;;23.80;97.70;;;;;;5033447;28;20448;-84
2023/06/06 11:30:32;;;;;;;13.02;5.38;;;23.80;97.60;;;;;;5035706;28;20045;-84
2023/06/06 11:32:59;;;;;;;11.20;5.20;;;24.00;97.40;;;;;;5034148;28;20378;-84
2023/06/06 11:35:28;;;;;;;12.32;5.43;;;24.00;97.20;;;;;;5034027;28;20099;-84
2023/06/06 11:37:53;;;;;;;13.77;5.30;;;24.20;97.20;;;;;;5035497;28;20045;-84
2023/06/06 11:40:19;;;;;;;12.23;5.05;;;24.30;96.80;;;;;;5035057;28;20079;-83
2023/06/06 11:42:45;;;;;;;14.15;5.30;;;24.30;96.80;;;;;;5033288;28;20120;-84
2023/06/06 11:45:17;;;;;;;12.02;5.03;;;24.30;96.60;;;;;;5033495;28;20462;-84
2023/06/06 11:47:44;;;;;;;11.47;4.93;;;24.30;96.50;;;;;;5035039;28;20428;-84
2023/06/06 11:50:11;;;;;;;10.40;5.38;;;24.20;96.10;;;;;;5032723;28;20748;-84
2023/06/06 11:52:48;;;;;;;11.95;5.32;;;24.20;96.40;;;;;;5035160;28;20048;-84
2023/06/06 11:55:15;;;;;;;10.90;5.38;;;24.30;96.00;;;;;;5033056;28;20064;-81
2023/06/06 11:57:41;;;;;;;12.70;6.25;;;24.30;96.50;;;;;;5033101;28;20124;-81
2023/06/06 12:00:16;;;;;;;11.32;5.80;;;24.40;96.20;;;;;;5034317;28;20053;-81
2023/06/06 12:02:45;;;;;;;12.02;5.50;;;24.10;96.00;;;;;;5034082;28;20049;-84
2023/06/06 12:05:25;;;;;;;12.02;5.20;;;24.20;96.20;;;;;;5033308;28;20083;-84
2023/06/06 12:07:54;;;;;;;12.43;4.88;;;24.30;96.20;;;;;;5034954;28;20045;-84
2023/06/06 12:10:28;;;;;;;11.73;4.70;;;24.60;96.40;;;;;;5033577;28;20112;-84
2023/06/06 12:12:54;;;;;;;;;;;24.70;96.00;;;;;;5034917;28;20053;-84
2023/06/06 12:15:19;;;;;;;11.43;5.07;;;24.90;96.00;;;;;;5032853;28;19925;-84
2023/06/06 12:17:45;;;;;;;12.88;5.28;;;25.20;95.80;;;;;;5033946;28;20038;-82
2023/06/06 12:20:11;;;;;;;10.38;4.97;;;25.20;95.40;;;;;;5034063;28;20055;-81
2023/06/06 12:22:36;;;;;;;13.15;5.30;;;25.20;95.60;;;;;;5033070;28;20042;-81
2023/06/06 12:25:04;;;;;;;11.00;5.38;;;25.20;95.10;;;;;;5032600;28;20139;-81
2023/06/06 12:27:36;;;;;;;11.23;5.13;;;25.30;95.40;;;;;;5034143;28;20038;-82
2023/06/06 12:30:03;;;;;;;11.90;5.18;;;25.50;95.40;;;;;;5033233;28;20396;-81
2023/06/06 12:32:32;;;;;;;11.40;5.32;;;25.60;95.20;;;;;;5033001;28;20504;-81
2023/06/06 12:34:59;;;;;;;11.05;4.57;;;25.50;95.10;;;;;;5031661;28;20045;-81
2023/06/06 12:37:51;;;;;;;12.40;5.43;;;25.40;94.90;;;;;;5032723;28;20397;-81
2023/06/06 12:40:19;;;;;;;11.98;5.60;;;25.40;95.10;;;;;;5027865;28;20053;-81
2023/06/06 12:42:55;;;;;;;10.77;4.82;;;25.20;94.70;;;;;;5034055;28;20099;-81
2023/06/06 12:45:22;;;;;;;14.75;5.05;;;25.20;95.00;;;;;;5032665;28;20045;-81
2023/06/06 12:47:50;;;;;;;12.55;5.70;;;25.30;95.20;;;;;;5033630;28;20508;-82